Dauntless Aviation
Airports Europe Spain
LECU
ECV

Madrid-Cuatro Vientos Airport

Madrid, SPAIN

Airport Info
Suggest Updated Information for this Airport

Location

Latitude / Longitude: 40°22'14"N / 3°47'6"W
  40°22.242'N / 3°47.106'W
  40.3707 / -3.7851

Runway Information

Runway 10 /28

Dimensions: 4921 x 98 ft.
Surface: ASP
 
Runway 10
Runway 28
Latitude: 40.371122 40.370233
Longitude: -3.793928 -3.776353
Elevation: 2267 ft. 2267 ft.
Runway true heading: 91.3 271.3
 

Runway 10L/28R

Dimensions: 3697 x 148 ft.
Surface: ASP
 
Runway 10L
Runway 28R
Latitude: 40.372342 40.371622
Longitude: -3.790706 -3.777589
Elevation: 2264 ft. 2264 ft.
Runway true heading: 91.3 271.3
 

Instrument Procedures

  Aerodrome Chart 1.1-1.2
  LEVS Parking / Docking Chart 1

IAPs (Instrument Approach Procedures)

  Visual Approach Chart 1
  Aerodrome Obstacle Chart Rwy 1 Rwy 09
  Aerodrome Obstacle Chart Rwy 2 Rwy 27
  Aerodrome Information (Textual)
Satellite photo at:
Airport distance calculator
From:
Weather Reports

METAR

LEVS
0.9nm E
LEVS 182200Z AUTO 02003KT 330V070 CAVOK 23/09 Q1018
LEMD
12.1nm NE
LEMD 182200Z VRB02KT CAVOK 22/08 Q1017 NOSIG
LETO
15.7nm NE
LETO 182200Z 03007KT CAVOK 20/07 Q1017 NOSIG

TAF

LEVS
0.9nm E
TAF LEVS 181700Z 1818/1918 VRB05KT CAVOK TX34/1915Z TN18/1906Z BECMG 1910/1912 15010KT PROB40 TEMPO 1916/1918 13015G29KT
LEGT
6.1nm SE
TAF LEGT 181700Z 1818/1918 VRB05KT CAVOK TX36/1915Z TN18/1906Z BECMG 1910/1912 15010KT PROB40 TEMPO 1916/1918 13015G29KT
LEMD
12.1nm NE
TAF LEMD 181700Z 1818/1924 VRB05KT CAVOK TX36/1915Z TN16/1906Z PROB30 TEMPO 1822/1902 11010KT BECMG 1910/1912 15010KT TEMPO 1916/1924 15015G29KT
LETO
15.7nm NE
TAF LETO 181700Z 1818/1918 VRB05KT CAVOK TX35/1915Z TN14/1906Z PROB30 TEMPO 1822/1902 11010KT BECMG 1910/1912 15010KT TEMPO 1916/1918 15015G29KT
LECV
16.1nm N
TAF LECV 181700Z 1818/1918 VRB05KT CAVOK TX30/1915Z TN16/1906Z
Safelog

 

Dauntless Aviation

© 2007-2022 Dauntless Aviation, all rights reserved
Information provided via PilotNav comes from a variety of official and unofficial data sources. As errors are possible, do not use PilotNav for primary flight planning purposes. Verify any information that you receive via PilotNav with current and canonical charts and other official documents. The material in this database is subject to database copyrights held by Dauntless Aviation and may not be copied without the express permission of Dauntless Aviation - licenses for use of part of all of this data are available for purchase; enquire via the Dauntless Aviation helpdesk. A number of mechanisms and markers exist in the database to protect against and identify infringement / copyright. Automated queries against this website are strictly prohibited, and all activity is logged and analyzed.